createdAt,value
2022-10-06T00:00:45.567Z,16.20
2022-10-06T00:03:16.194Z,16.20
2022-10-06T00:05:47.141Z,16.20
2022-10-06T00:08:17.425Z,16.10
2022-10-06T00:10:47.995Z,16.10
2022-10-06T00:13:20.882Z,16.00
2022-10-06T00:15:51.184Z,16.00
2022-10-06T00:18:21.484Z,16.00
2022-10-06T00:20:57.682Z,16.00
2022-10-06T00:23:28.755Z,16.00
2022-10-06T00:25:59.550Z,16.00
2022-10-06T00:28:33.151Z,15.90
2022-10-06T00:31:05.108Z,15.90
2022-10-06T00:33:35.481Z,15.90
2022-10-06T00:36:05.938Z,15.80
2022-10-06T00:38:36.341Z,15.70
2022-10-06T00:41:06.693Z,15.80
2022-10-06T00:43:51.821Z,15.70
2022-10-06T00:46:27.856Z,15.70
2022-10-06T00:49:05.937Z,15.80
2022-10-06T00:51:37.151Z,15.70
2022-10-06T00:54:07.690Z,15.70
2022-10-06T00:56:38.118Z,15.70
2022-10-06T00:59:13.147Z,15.70
2022-10-06T01:01:47.372Z,15.60
2022-10-06T01:04:19.836Z,15.60
2022-10-06T01:06:53.648Z,15.60
2022-10-06T01:09:25.653Z,15.60
2022-10-06T01:11:58.895Z,15.50
2022-10-06T01:14:32.142Z,15.50
2022-10-06T01:17:05.932Z,15.50
2022-10-06T01:19:47.582Z,15.50
2022-10-06T01:22:19.929Z,15.40
2022-10-06T01:24:53.293Z,15.40
2022-10-06T01:27:25.834Z,15.50
2022-10-06T01:29:57.733Z,15.40
2022-10-06T01:32:30.795Z,15.40
2022-10-06T01:35:02.715Z,15.40
2022-10-06T01:37:32.985Z,15.30
2022-10-06T01:40:06.413Z,15.30
2022-10-06T01:42:39.177Z,15.30
2022-10-06T01:45:11.391Z,15.30
2022-10-06T01:47:41.703Z,15.20
2022-10-06T01:50:13.559Z,15.20
2022-10-06T01:52:44.033Z,15.20
2022-10-06T01:55:17.509Z,15.20
2022-10-06T01:57:48.087Z,15.20
2022-10-06T02:00:19.937Z,15.10
2022-10-06T02:02:51.468Z,15.20
2022-10-06T02:05:21.924Z,15.20
2022-10-06T02:07:54.875Z,15.10
2022-10-06T02:10:28.119Z,15.10
2022-10-06T02:12:58.555Z,15.10
2022-10-06T02:15:33.472Z,15.10
2022-10-06T02:18:03.820Z,15.00
2022-10-06T02:20:34.155Z,15.10
2022-10-06T02:23:04.416Z,15.00
2022-10-06T02:25:37.324Z,15.00
2022-10-06T02:28:08.642Z,15.00
2022-10-06T02:30:39.568Z,14.90
2022-10-06T02:33:09.888Z,15.00
2022-10-06T02:35:43.022Z,14.90
2022-10-06T02:38:13.850Z,14.90
2022-10-06T02:40:47.601Z,14.90
2022-10-06T02:43:17.963Z,14.90
2022-10-06T02:45:56.307Z,14.90
2022-10-06T02:48:29.096Z,14.80
2022-10-06T02:51:00.644Z,14.70
2022-10-06T02:53:32.160Z,14.70
2022-10-06T02:56:07.161Z,14.70
2022-10-06T02:58:38.647Z,14.70
2022-10-06T03:01:13.930Z,14.70
2022-10-06T03:03:44.876Z,14.70
2022-10-06T03:06:24.742Z,14.70
2022-10-06T03:09:01.188Z,14.60
2022-10-06T03:11:37.568Z,14.60
2022-10-06T03:14:09.658Z,14.50
2022-10-06T03:16:42.543Z,14.50
2022-10-06T03:19:21.902Z,14.60
2022-10-06T03:21:52.617Z,14.50
2022-10-06T03:24:24.338Z,14.50
2022-10-06T03:27:01.933Z,14.50
2022-10-06T03:29:32.879Z,14.50
2022-10-06T03:32:04.231Z,14.50
2022-10-06T03:34:35.645Z,14.50
2022-10-06T03:37:08.779Z,14.50
2022-10-06T03:39:39.143Z,14.50
2022-10-06T03:42:12.185Z,14.40
2022-10-06T03:44:42.628Z,14.40
2022-10-06T03:47:16.964Z,14.40
2022-10-06T03:49:49.212Z,14.40
2022-10-06T03:52:25.071Z,14.40
2022-10-06T03:54:56.426Z,14.40
2022-10-06T03:57:29.618Z,14.40
2022-10-06T04:00:00.788Z,14.30
2022-10-06T04:02:31.132Z,14.40
2022-10-06T04:05:01.961Z,14.30
2022-10-06T04:07:33.136Z,14.30
2022-10-06T04:10:03.816Z,14.30
2022-10-06T04:12:36.786Z,14.30
2022-10-06T04:15:07.776Z,14.30
2022-10-06T04:17:38.212Z,14.20
2022-10-06T04:20:09.779Z,14.30
2022-10-06T04:22:40.196Z,14.20
2022-10-06T04:25:12.027Z,14.30
2022-10-06T04:27:45.467Z,14.30
2022-10-06T04:30:18.320Z,14.20
2022-10-06T04:32:49.224Z,14.10
2022-10-06T04:35:20.379Z,14.20
2022-10-06T04:37:52.114Z,14.20
2022-10-06T04:40:22.501Z,14.20
2022-10-06T04:42:56.638Z,14.10
2022-10-06T04:45:27.087Z,14.10
2022-10-06T04:47:57.767Z,14.10
2022-10-06T04:50:28.492Z,14.10
2022-10-06T04:53:11.334Z,14.10
2022-10-06T04:55:41.668Z,14.10
2022-10-06T04:58:17.751Z,14.10
2022-10-06T05:00:52.109Z,14.10
2022-10-06T05:03:22.626Z,14.10
2022-10-06T05:05:53.858Z,14.00
2022-10-06T05:08:24.216Z,14.00
2022-10-06T05:11:01.355Z,14.00
2022-10-06T05:13:35.171Z,14.00
2022-10-06T05:16:06.477Z,14.00
2022-10-06T05:18:38.385Z,13.90
2022-10-06T05:21:11.550Z,14.00
2022-10-06T05:23:43.834Z,14.00
2022-10-06T05:26:16.359Z,13.90
2022-10-06T05:28:50.053Z,13.90
2022-10-06T05:31:21.778Z,13.90
2022-10-06T05:33:52.331Z,13.90
2022-10-06T05:36:24.683Z,13.90
2022-10-06T05:38:57.266Z,13.80
2022-10-06T05:41:29.844Z,13.90
2022-10-06T05:44:05.180Z,13.80
2022-10-06T05:46:38.217Z,13.80
2022-10-06T05:49:13.286Z,13.80
2022-10-06T05:51:53.283Z,13.80
2022-10-06T05:54:30.136Z,13.70
2022-10-06T05:57:00.422Z,13.70
2022-10-06T05:59:34.602Z,13.70
2022-10-06T06:02:06.637Z,13.70
2022-10-06T06:04:44.504Z,13.70
2022-10-06T06:07:14.775Z,13.70
2022-10-06T06:09:47.253Z,13.60
2022-10-06T06:12:17.577Z,13.60
2022-10-06T06:15:12.262Z,13.50
2022-10-06T06:17:50.851Z,13.50
2022-10-06T06:20:21.106Z,13.50
2022-10-06T06:22:55.591Z,13.50
2022-10-06T06:25:29.709Z,13.50
2022-10-06T06:28:00.162Z,13.40
2022-10-06T06:30:33.125Z,13.50
2022-10-06T06:33:03.364Z,13.50
2022-10-06T06:35:34.540Z,13.50
2022-10-06T06:38:04.927Z,13.40
2022-10-06T06:40:35.376Z,13.50
2022-10-06T06:43:05.582Z,13.50
2022-10-06T06:46:05.471Z,13.40
2022-10-06T06:48:50.054Z,13.40
2022-10-06T06:51:23.076Z,13.40
2022-10-06T06:53:54.564Z,13.40
2022-10-06T06:56:24.962Z,13.30
2022-10-06T06:58:55.485Z,13.40
2022-10-06T07:01:29.432Z,13.30
2022-10-06T07:04:01.583Z,13.30
2022-10-06T07:06:36.014Z,13.30
2022-10-06T07:09:06.889Z,13.40
2022-10-06T07:11:39.623Z,13.40
2022-10-06T07:14:15.090Z,13.40
2022-10-06T07:17:02.984Z,13.40
2022-10-06T07:19:57.695Z,13.40
2022-10-06T07:22:43.353Z,13.50
2022-10-06T07:25:26.109Z,13.50
2022-10-06T07:28:03.433Z,13.50
2022-10-06T07:30:42.048Z,13.50
2022-10-06T07:33:18.271Z,13.50
2022-10-06T07:35:49.255Z,13.60
2022-10-06T07:38:25.913Z,13.60
2022-10-06T07:43:53.959Z,13.70
2022-10-06T07:46:25.216Z,13.70
2022-10-06T07:49:09.331Z,13.70
2022-10-06T07:51:39.784Z,13.70
2022-10-06T07:54:11.026Z,13.70
2022-10-06T07:56:49.003Z,13.80
2022-10-06T07:59:22.311Z,13.80
2022-10-06T08:01:52.702Z,13.80
2022-10-06T08:04:25.861Z,13.80
2022-10-06T08:06:58.654Z,13.90
2022-10-06T08:09:30.889Z,13.90
2022-10-06T08:12:22.939Z,13.90
2022-10-06T08:14:57.350Z,13.90
2022-10-06T08:17:28.542Z,14.00
2022-10-06T08:20:01.730Z,14.00
2022-10-06T08:22:33.495Z,14.10
2022-10-06T08:25:06.579Z,14.00
2022-10-06T08:27:38.728Z,14.00
2022-10-06T08:30:11.729Z,14.10
2022-10-06T08:32:43.483Z,14.10
2022-10-06T08:35:17.094Z,14.20
2022-10-06T08:37:48.338Z,14.10
2022-10-06T08:40:18.988Z,14.20
2022-10-06T08:42:53.334Z,14.20
2022-10-06T08:45:27.451Z,14.30
2022-10-06T08:48:03.581Z,14.30
2022-10-06T08:50:42.253Z,14.40
2022-10-06T08:53:19.106Z,14.40
2022-10-06T08:55:53.421Z,14.40
2022-10-06T08:58:34.852Z,14.40
2022-10-06T09:01:18.966Z,14.40
2022-10-06T09:03:52.518Z,14.50
2022-10-06T09:06:44.551Z,14.50
2022-10-06T09:09:26.415Z,14.60
2022-10-06T09:12:05.202Z,14.60
2022-10-06T09:14:40.600Z,14.60
2022-10-06T09:17:16.028Z,14.60
2022-10-06T09:19:49.400Z,14.80
2022-10-06T09:22:24.861Z,14.70
2022-10-06T09:24:59.471Z,14.80
2022-10-06T09:27:36.861Z,14.90
2022-10-06T09:30:09.341Z,14.90
2022-10-06T09:32:41.199Z,15.00
2022-10-06T09:35:21.292Z,15.00
2022-10-06T09:38:08.331Z,15.00
2022-10-06T09:40:49.433Z,15.10
2022-10-06T09:43:23.965Z,15.10
2022-10-06T09:45:54.917Z,15.20
2022-10-06T09:48:27.202Z,15.20
2022-10-06T09:51:16.272Z,15.30
2022-10-06T09:54:14.355Z,15.40
2022-10-06T09:56:47.390Z,15.50
2022-10-06T09:59:24.688Z,15.50
2022-10-06T10:01:56.229Z,15.60
2022-10-06T10:04:30.492Z,15.70
2022-10-06T10:07:16.246Z,15.70
2022-10-06T10:09:49.212Z,15.80
2022-10-06T10:12:35.701Z,15.80
2022-10-06T10:15:26.004Z,15.90
2022-10-06T10:17:59.193Z,15.90
2022-10-06T10:20:37.709Z,15.90
2022-10-06T10:23:27.190Z,16.00
2022-10-06T10:26:19.609Z,16.10
2022-10-06T10:29:04.015Z,16.10
2022-10-06T10:31:42.855Z,16.20
2022-10-06T10:34:24.398Z,16.30
2022-10-06T10:36:59.587Z,16.30
2022-10-06T10:39:36.475Z,16.40
2022-10-06T10:42:18.667Z,16.50
2022-10-06T10:44:56.833Z,16.50
2022-10-06T10:47:31.003Z,16.50
2022-10-06T10:50:09.405Z,16.60
2022-10-06T10:52:43.601Z,16.50
2022-10-06T10:55:27.249Z,16.60
2022-10-06T10:58:07.503Z,16.70
2022-10-06T11:00:42.481Z,16.70
2022-10-06T11:03:13.658Z,16.70
2022-10-06T11:06:12.674Z,16.80
2022-10-06T11:08:49.605Z,16.80
2022-10-06T11:11:27.004Z,16.90
2022-10-06T11:14:04.509Z,17.00
2022-10-06T11:16:42.551Z,17.10
2022-10-06T11:19:24.501Z,17.10
2022-10-06T11:22:01.411Z,17.10
2022-10-06T11:24:44.124Z,17.20
2022-10-06T11:27:32.912Z,17.10
2022-10-06T11:30:10.284Z,17.10
2022-10-06T11:32:52.096Z,17.30
2022-10-06T11:35:24.425Z,17.30
2022-10-06T11:38:01.199Z,17.30
2022-10-06T11:40:50.968Z,17.40
2022-10-06T11:43:32.352Z,17.40
2022-10-06T11:46:10.793Z,17.50
2022-10-06T11:48:42.748Z,17.50
2022-10-06T11:51:31.923Z,17.50
2022-10-06T11:54:02.643Z,17.50
2022-10-06T11:56:42.301Z,17.60
2022-10-06T11:59:14.924Z,17.60
2022-10-06T12:01:59.045Z,17.70
2022-10-06T12:04:29.653Z,17.80
2022-10-06T12:07:07.772Z,17.70
2022-10-06T12:09:55.874Z,17.80
2022-10-06T12:13:13.950Z,17.80
2022-10-06T12:19:05.713Z,17.90
2022-10-06T12:21:48.105Z,18.00
2022-10-06T12:24:41.585Z,18.00
2022-10-06T12:27:47.716Z,18.00
2022-10-06T12:30:26.544Z,18.10
2022-10-06T12:32:58.706Z,18.10
2022-10-06T12:35:35.177Z,18.20
2022-10-06T12:38:08.089Z,18.30
2022-10-06T12:40:55.649Z,18.20
2022-10-06T12:44:00.959Z,18.30
2022-10-06T12:46:45.482Z,18.20
2022-10-06T12:49:37.071Z,18.20
2022-10-06T12:52:31.867Z,18.20
2022-10-06T12:55:14.742Z,18.30
2022-10-06T12:57:49.721Z,18.40
2022-10-06T13:00:33.345Z,18.40
2022-10-06T13:03:06.540Z,18.40
2022-10-06T13:05:38.598Z,18.50
2022-10-06T13:08:26.133Z,18.50
2022-10-06T13:11:14.475Z,18.60
2022-10-06T13:13:50.610Z,18.60
2022-10-06T13:16:23.471Z,18.60
2022-10-06T13:19:01.347Z,18.70
2022-10-06T13:21:33.080Z,18.60
2022-10-06T13:24:07.094Z,18.70
2022-10-06T13:26:37.673Z,18.70
2022-10-06T13:29:18.693Z,18.70
2022-10-06T13:31:52.948Z,18.70
2022-10-06T13:34:30.199Z,18.70
2022-10-06T13:37:02.641Z,18.80
2022-10-06T13:39:35.875Z,18.80
2022-10-06T13:42:11.850Z,18.80
2022-10-06T13:44:45.269Z,18.70
2022-10-06T13:47:19.556Z,18.60
2022-10-06T13:49:52.876Z,18.80
2022-10-06T13:52:28.261Z,18.80
2022-10-06T13:55:03.025Z,18.80
2022-10-06T13:57:38.064Z,18.80
2022-10-06T14:00:18.409Z,18.80
2022-10-06T14:02:50.820Z,18.70
2022-10-06T14:05:30.651Z,18.60
2022-10-06T14:08:05.867Z,18.70
2022-10-06T14:10:49.401Z,18.80
2022-10-06T14:13:23.441Z,18.80
2022-10-06T14:15:56.372Z,18.80
2022-10-06T14:18:29.754Z,18.90
2022-10-06T14:21:00.730Z,19.00
2022-10-06T14:23:52.022Z,19.00
2022-10-06T14:26:29.239Z,18.90
2022-10-06T14:29:00.912Z,18.80
2022-10-06T14:31:33.635Z,18.90
2022-10-06T14:34:04.926Z,18.80
2022-10-06T14:36:37.416Z,18.80
2022-10-06T14:39:11.497Z,18.80
2022-10-06T14:41:46.361Z,18.80
2022-10-06T14:44:16.922Z,18.80
2022-10-06T14:46:50.960Z,18.80
2022-10-06T14:49:22.159Z,18.80
2022-10-06T14:51:54.089Z,18.70
2022-10-06T14:54:24.743Z,18.70
2022-10-06T14:56:57.670Z,18.60
2022-10-06T14:59:28.688Z,18.60
2022-10-06T15:01:59.068Z,18.60
2022-10-06T15:04:29.538Z,18.60
2022-10-06T15:07:12.282Z,18.70
2022-10-06T15:09:42.882Z,18.70
2022-10-06T15:12:16.019Z,18.70
2022-10-06T15:14:46.361Z,18.60
2022-10-06T15:17:16.732Z,18.60
2022-10-06T15:19:47.229Z,18.60
2022-10-06T15:22:18.006Z,18.60
2022-10-06T15:24:50.498Z,18.50
2022-10-06T15:27:35.902Z,18.40
2022-10-06T15:30:06.726Z,18.40
2022-10-06T15:32:37.432Z,18.30
2022-10-06T15:35:08.379Z,18.30
2022-10-06T15:37:39.556Z,18.40
2022-10-06T15:40:10.775Z,18.40
2022-10-06T15:42:43.761Z,18.40
2022-10-06T15:45:14.607Z,18.40
2022-10-06T15:47:45.097Z,18.40
2022-10-06T15:50:18.810Z,18.40
2022-10-06T15:52:49.783Z,18.30
2022-10-06T15:55:20.448Z,18.40
2022-10-06T15:57:53.308Z,18.40
2022-10-06T16:00:23.558Z,18.50
2022-10-06T16:02:53.902Z,18.40
2022-10-06T16:05:46.946Z,18.30
2022-10-06T16:08:17.341Z,18.40
2022-10-06T16:10:53.085Z,18.30
2022-10-06T16:13:26.043Z,18.30
2022-10-06T16:15:56.762Z,18.30
2022-10-06T16:18:28.723Z,18.30
2022-10-06T16:20:59.015Z,18.20
2022-10-06T16:23:29.398Z,18.20
2022-10-06T16:25:59.726Z,18.20
2022-10-06T16:28:32.695Z,18.20
2022-10-06T16:31:03.344Z,18.10
2022-10-06T16:33:33.753Z,18.10
2022-10-06T16:36:05.175Z,18.00
2022-10-06T16:38:35.540Z,18.10
2022-10-06T16:41:06.756Z,18.00
2022-10-06T16:43:41.253Z,18.00
2022-10-06T16:46:13.071Z,17.90
2022-10-06T16:48:45.005Z,17.90
2022-10-06T16:51:17.510Z,17.90
2022-10-06T16:53:49.142Z,17.90
2022-10-06T16:56:21.179Z,17.80
2022-10-06T16:58:56.374Z,17.80
2022-10-06T17:01:28.618Z,17.70
2022-10-06T17:04:03.193Z,17.70
2022-10-06T17:06:34.331Z,17.60
2022-10-06T17:09:05.057Z,17.60
2022-10-06T17:11:35.420Z,17.50
2022-10-06T17:14:08.469Z,17.40
2022-10-06T17:16:41.070Z,17.40
2022-10-06T17:19:12.799Z,17.40
2022-10-06T17:21:47.998Z,17.30
2022-10-06T17:24:20.884Z,17.30
2022-10-06T17:26:52.972Z,17.20
2022-10-06T17:29:30.405Z,17.20
2022-10-06T17:32:01.696Z,17.20
2022-10-06T17:34:33.422Z,17.10
2022-10-06T17:37:04.738Z,17.10
2022-10-06T17:39:35.178Z,17.10
2022-10-06T17:42:05.494Z,17.00
2022-10-06T17:44:38.342Z,17.00
2022-10-06T17:47:12.888Z,17.00
2022-10-06T17:49:43.348Z,16.90
2022-10-06T17:52:13.530Z,16.90
2022-10-06T17:54:45.654Z,16.80
2022-10-06T17:57:16.409Z,16.80
2022-10-06T17:59:49.565Z,16.80
2022-10-06T18:02:19.841Z,16.80
2022-10-06T18:04:51.475Z,16.80
2022-10-06T18:07:22.200Z,16.80
2022-10-06T18:10:07.372Z,16.70
2022-10-06T18:12:38.997Z,16.80
2022-10-06T18:15:13.338Z,16.80
2022-10-06T18:17:44.228Z,16.70
2022-10-06T18:20:16.218Z,16.70
2022-10-06T18:22:46.409Z,16.70
2022-10-06T18:25:17.283Z,16.70
2022-10-06T18:27:49.372Z,16.70
2022-10-06T18:30:26.950Z,16.70
2022-10-06T18:36:06.726Z,16.70
2022-10-06T18:38:47.486Z,16.60
2022-10-06T18:41:20.529Z,16.60
2022-10-06T18:43:51.202Z,16.60
2022-10-06T18:46:36.863Z,16.60
2022-10-06T18:49:10.698Z,16.60
2022-10-06T18:51:42.936Z,16.50
2022-10-06T18:54:15.412Z,16.60
2022-10-06T18:56:50.178Z,16.50
2022-10-06T18:59:22.895Z,16.50
2022-10-06T19:01:57.991Z,16.40
2022-10-06T19:04:28.534Z,16.50
2022-10-06T19:06:59.230Z,16.40
2022-10-06T19:09:29.571Z,16.30
2022-10-06T19:12:02.080Z,16.40
2022-10-06T19:14:35.984Z,16.40
2022-10-06T19:17:13.344Z,16.40
2022-10-06T19:19:45.361Z,16.30
2022-10-06T19:22:16.977Z,16.20
2022-10-06T19:24:48.756Z,16.20
2022-10-06T19:27:24.392Z,16.20
2022-10-06T19:29:57.025Z,16.20
2022-10-06T19:32:32.921Z,16.20
2022-10-06T19:35:07.736Z,16.10
2022-10-06T19:37:40.930Z,16.10
2022-10-06T19:40:11.725Z,16.10
2022-10-06T19:42:48.522Z,16.10
2022-10-06T19:45:20.776Z,16.10
2022-10-06T19:47:54.011Z,16.10
2022-10-06T19:50:27.121Z,16.00
2022-10-06T19:52:57.746Z,16.00
2022-10-06T19:55:28.729Z,16.00
2022-10-06T19:58:00.216Z,16.00
2022-10-06T20:00:30.722Z,15.90
2022-10-06T20:03:07.624Z,15.90
2022-10-06T20:05:39.722Z,15.90
2022-10-06T20:08:10.095Z,15.90
2022-10-06T20:10:40.319Z,15.90
2022-10-06T20:13:13.707Z,15.90
2022-10-06T20:15:44.932Z,15.90
2022-10-06T20:18:18.070Z,15.90
2022-10-06T20:20:59.360Z,15.80
2022-10-06T20:23:29.637Z,15.80
2022-10-06T20:26:11.753Z,15.80
2022-10-06T20:28:42.123Z,15.80
2022-10-06T20:31:19.615Z,15.70
2022-10-06T20:33:52.718Z,15.70
2022-10-06T20:36:23.488Z,15.70
2022-10-06T20:39:06.470Z,15.60
2022-10-06T20:41:36.987Z,15.70
2022-10-06T20:44:08.051Z,15.70
2022-10-06T20:46:40.332Z,15.70
2022-10-06T20:49:17.694Z,15.60
2022-10-06T20:51:51.782Z,15.60
2022-10-06T20:54:23.853Z,15.60
2022-10-06T20:56:56.203Z,15.50
2022-10-06T20:59:27.631Z,15.50
2022-10-06T21:02:00.103Z,15.50
2022-10-06T21:04:35.038Z,15.50
2022-10-06T21:07:06.345Z,15.40
2022-10-06T21:09:36.670Z,15.40
2022-10-06T21:12:07.371Z,15.40
2022-10-06T21:14:37.726Z,15.40
2022-10-06T21:17:08.226Z,15.40
2022-10-06T21:19:41.048Z,15.40
2022-10-06T21:22:11.456Z,15.30
2022-10-06T21:24:41.732Z,15.30
2022-10-06T21:27:12.145Z,15.30
2022-10-06T21:29:42.802Z,15.20
2022-10-06T21:32:13.108Z,15.20
2022-10-06T21:34:45.990Z,15.20
2022-10-06T21:37:16.555Z,15.20
2022-10-06T21:39:46.834Z,15.10
2022-10-06T21:42:17.146Z,15.10
2022-10-06T21:44:47.453Z,15.10
2022-10-06T21:47:17.859Z,15.10
2022-10-06T21:49:50.949Z,15.00
2022-10-06T21:52:21.218Z,15.10
2022-10-06T21:54:51.535Z,15.00
2022-10-06T21:57:21.817Z,14.90
2022-10-06T21:59:52.061Z,14.90
2022-10-06T22:02:22.386Z,14.90
2022-10-06T22:04:55.562Z,14.80
2022-10-06T22:07:25.789Z,14.80
2022-10-06T22:09:56.062Z,14.80
2022-10-06T22:12:26.341Z,14.80
2022-10-06T22:14:59.286Z,14.70
2022-10-06T22:17:29.940Z,14.70
2022-10-06T22:20:05.331Z,14.70
2022-10-06T22:22:35.627Z,14.70
2022-10-06T22:25:06.170Z,14.70
2022-10-06T22:27:36.544Z,14.60
2022-10-06T22:30:09.915Z,14.60
2022-10-06T22:32:40.203Z,14.50
2022-10-06T22:35:15.799Z,14.60
2022-10-06T22:37:46.690Z,14.50
2022-10-06T22:40:17.173Z,14.40
2022-10-06T22:42:47.472Z,14.40
2022-10-06T22:45:17.806Z,14.40
2022-10-06T22:47:48.119Z,14.40
2022-10-06T22:50:20.973Z,14.30
2022-10-06T22:52:51.216Z,14.30
2022-10-06T22:55:21.498Z,14.40
2022-10-06T22:57:51.912Z,14.40
2022-10-06T23:00:22.375Z,14.30
2022-10-06T23:02:54.478Z,14.30
2022-10-06T23:05:27.520Z,14.20
2022-10-06T23:07:57.894Z,14.30
2022-10-06T23:10:29.896Z,14.30
2022-10-06T23:13:01.010Z,14.20
2022-10-06T23:15:31.708Z,14.20
2022-10-06T23:18:02.467Z,14.20
2022-10-06T23:20:35.471Z,14.10
2022-10-06T23:23:05.798Z,14.20
2022-10-06T23:25:40.354Z,14.10
2022-10-06T23:28:10.735Z,14.20
2022-10-06T23:30:41.180Z,14.10
2022-10-06T23:33:11.507Z,14.00
2022-10-06T23:35:44.451Z,14.00
2022-10-06T23:38:14.779Z,14.00
2022-10-06T23:40:45.356Z,14.00
2022-10-06T23:43:15.698Z,13.90
2022-10-06T23:45:46.028Z,13.90
2022-10-06T23:48:16.430Z,13.90
2022-10-06T23:50:58.303Z,13.90
2022-10-06T23:53:29.248Z,14.00
2022-10-06T23:56:00.464Z,13.80
2022-10-06T23:58:31.615Z,13.80
